createdAt,value
2023-03-17T00:00:34.171Z,28.35
2023-03-17T00:03:40.603Z,26.05
2023-03-17T00:06:43.373Z,25.58
2023-03-17T00:09:46.153Z,19.52
2023-03-17T00:12:51.001Z,22.17
2023-03-17T00:16:02.243Z,21.98
2023-03-17T00:19:05.454Z,24.35
2023-03-17T00:22:18.004Z,26.27
2023-03-17T00:25:29.817Z,22.73
2023-03-17T00:28:32.680Z,22.50
2023-03-17T00:31:36.140Z,22.33
2023-03-17T00:34:39.799Z,21.85
2023-03-17T00:37:45.658Z,21.73
2023-03-17T00:40:49.120Z,23.45
2023-03-17T00:43:51.919Z,26.57
2023-03-17T00:46:55.123Z,28.40
2023-03-17T00:49:58.557Z,25.88
2023-03-17T00:53:01.561Z,32.20
2023-03-17T00:56:06.537Z,35.92
2023-03-17T00:59:24.439Z,34.30
2023-03-17T01:02:27.570Z,26.48
2023-03-17T01:05:30.429Z,30.73
2023-03-17T01:08:33.238Z,28.00
2023-03-17T01:11:36.663Z,27.15
2023-03-17T01:14:39.816Z,29.13
2023-03-17T01:17:42.919Z,29.63
2023-03-17T01:20:45.966Z,44.42
2023-03-17T01:23:49.504Z,33.65
2023-03-17T01:26:53.081Z,33.05
2023-03-17T01:29:56.020Z,34.20
2023-03-17T01:33:00.199Z,36.17
2023-03-17T01:36:03.188Z,35.17
2023-03-17T01:39:07.489Z,32.40
2023-03-17T01:42:11.700Z,30.98
2023-03-17T01:45:52.055Z,25.23
2023-03-17T01:49:07.104Z,27.83
2023-03-17T01:52:11.392Z,37.55
2023-03-17T01:55:17.391Z,31.48
2023-03-17T01:58:23.181Z,31.98
2023-03-17T02:01:32.150Z,38.20
2023-03-17T02:04:36.055Z,39.97
2023-03-17T02:07:41.017Z,47.67
2023-03-17T02:10:45.808Z,57.97
2023-03-17T02:13:48.970Z,60.65
2023-03-17T02:16:51.798Z,58.47
2023-03-17T02:19:55.537Z,54.25
2023-03-17T02:23:00.453Z,55.53
2023-03-17T02:26:04.216Z,45.90
2023-03-17T02:29:07.243Z,46.33
2023-03-17T02:32:10.347Z,68.93
2023-03-17T02:35:13.558Z,51.90
2023-03-17T02:38:17.642Z,50.35
2023-03-17T02:41:20.927Z,62.95
2023-03-17T02:44:24.269Z,54.70
2023-03-17T02:47:29.398Z,42.53
2023-03-17T02:50:32.626Z,44.08
2023-03-17T02:53:35.642Z,39.03
2023-03-17T02:56:38.538Z,42.90
2023-03-17T02:59:41.658Z,44.25
2023-03-17T03:02:44.818Z,48.10
2023-03-17T03:05:48.019Z,50.63
2023-03-17T03:08:51.532Z,40.63
2023-03-17T03:11:54.794Z,45.50
2023-03-17T03:14:57.461Z,42.28
2023-03-17T03:18:00.345Z,44.63
2023-03-17T03:21:04.201Z,47.70
2023-03-17T03:24:07.484Z,47.05
2023-03-17T03:27:10.384Z,51.20
2023-03-17T03:30:13.340Z,44.00
2023-03-17T03:33:16.837Z,48.60
2023-03-17T03:36:19.994Z,32.03
2023-03-17T03:39:22.850Z,34.58
2023-03-17T03:42:25.873Z,27.65
2023-03-17T03:45:28.852Z,29.70
2023-03-17T03:48:31.658Z,29.73
2023-03-17T03:51:34.932Z,28.45
2023-03-17T03:54:37.733Z,31.92
2023-03-17T03:57:40.962Z,17.83
2023-03-17T04:00:43.810Z,27.88
2023-03-17T04:03:47.571Z,25.93
2023-03-17T04:06:50.472Z,33.13
2023-03-17T04:09:53.478Z,39.05
2023-03-17T04:12:56.475Z,35.85
2023-03-17T04:16:03.492Z,42.67
2023-03-17T04:19:07.046Z,40.07
2023-03-17T04:22:12.000Z,40.33
2023-03-17T04:25:16.012Z,80.00
2023-03-17T04:28:19.630Z,91.80
2023-03-17T04:31:22.459Z,74.05
2023-03-17T04:34:25.290Z,62.37
2023-03-17T04:37:28.157Z,60.65
2023-03-17T04:40:31.448Z,45.20
2023-03-17T04:43:34.418Z,48.08
2023-03-17T04:46:37.313Z,38.05
2023-03-17T04:49:40.345Z,55.40
2023-03-17T04:52:43.114Z,51.20
2023-03-17T04:55:46.174Z,60.67
2023-03-17T04:58:49.141Z,55.38
2023-03-17T05:01:51.880Z,47.20
2023-03-17T05:04:54.643Z,37.60
2023-03-17T05:07:57.399Z,34.08
2023-03-17T05:11:00.291Z,33.97
2023-03-17T05:14:03.112Z,39.22
2023-03-17T05:17:05.928Z,44.00
2023-03-17T05:20:09.765Z,39.17
2023-03-17T05:23:12.512Z,49.97
2023-03-17T05:26:15.242Z,49.83
2023-03-17T05:29:18.569Z,56.95
2023-03-17T05:32:21.635Z,65.50
2023-03-17T05:35:24.462Z,58.37
2023-03-17T05:38:27.284Z,57.28
2023-03-17T05:41:30.062Z,59.72
2023-03-17T05:44:32.868Z,54.05
2023-03-17T05:47:36.424Z,59.63
2023-03-17T05:50:40.352Z,64.07
2023-03-17T05:53:43.656Z,58.42
2023-03-17T05:56:46.504Z,65.57
2023-03-17T05:59:50.993Z,62.88
2023-03-17T06:02:54.096Z,53.90
2023-03-17T06:05:57.166Z,54.17
2023-03-17T06:09:00.124Z,37.72
2023-03-17T06:12:03.011Z,29.10
2023-03-17T06:15:06.679Z,27.02
2023-03-17T06:18:50.784Z,29.65
2023-03-17T06:22:10.365Z,21.97
2023-03-17T06:25:54.698Z,21.10
2023-03-17T06:29:26.487Z,18.92
2023-03-17T06:32:30.798Z,18.50
2023-03-17T06:35:34.746Z,17.65
2023-03-17T06:38:38.000Z,13.43
2023-03-17T06:41:40.949Z,14.30
2023-03-17T06:44:43.715Z,11.68
2023-03-17T06:47:46.967Z,13.98
2023-03-17T06:50:50.352Z,17.40
2023-03-17T06:53:56.356Z,11.67
2023-03-17T06:56:59.157Z,11.48
2023-03-17T07:00:02.128Z,12.20
2023-03-17T07:03:22.698Z,13.05
2023-03-17T07:06:40.901Z,11.93
2023-03-17T07:09:43.734Z,12.27
2023-03-17T07:12:46.600Z,10.85
2023-03-17T07:19:13.198Z,14.70
2023-03-17T07:22:16.586Z,15.27
2023-03-17T07:25:20.150Z,11.43
2023-03-17T07:28:24.981Z,6.97
2023-03-17T07:31:29.192Z,8.38
2023-03-17T07:34:32.557Z,8.40
2023-03-17T07:37:35.681Z,9.85
2023-03-17T07:40:39.385Z,6.47
2023-03-17T07:43:42.450Z,8.88
2023-03-17T07:46:46.460Z,11.30
2023-03-17T07:49:49.541Z,6.72
2023-03-17T07:52:56.507Z,10.30
2023-03-17T07:55:59.330Z,17.30
2023-03-17T07:59:02.322Z,7.60
2023-03-17T08:02:05.270Z,7.93
2023-03-17T08:05:09.021Z,9.45
2023-03-17T08:08:12.842Z,6.70
2023-03-17T08:11:15.862Z,11.43
2023-03-17T08:14:19.401Z,7.20
2023-03-17T08:17:24.551Z,9.18
2023-03-17T08:20:31.960Z,9.98
2023-03-17T08:23:34.972Z,8.68
2023-03-17T08:26:37.892Z,9.27
2023-03-17T08:29:40.946Z,7.63
2023-03-17T08:32:44.707Z,7.85
2023-03-17T08:35:48.036Z,9.52
2023-03-17T08:38:51.158Z,6.80
2023-03-17T08:41:55.101Z,5.90
2023-03-17T08:44:58.018Z,7.60
2023-03-17T08:48:01.380Z,7.75
2023-03-17T08:51:07.033Z,6.95
2023-03-17T08:54:16.462Z,5.32
2023-03-17T08:57:25.256Z,4.93
2023-03-17T09:02:58.880Z,6.85
2023-03-17T09:06:08.004Z,6.95
2023-03-17T09:09:12.976Z,6.73
2023-03-17T09:12:21.096Z,6.88
2023-03-17T09:15:24.073Z,5.63
2023-03-17T09:18:27.421Z,7.38
2023-03-17T09:21:30.215Z,6.95
2023-03-17T09:24:33.563Z,7.87
2023-03-17T09:27:36.554Z,6.82
2023-03-17T09:30:46.063Z,7.22
2023-03-17T09:33:49.923Z,6.32
2023-03-17T09:36:56.131Z,6.10
2023-03-17T09:39:58.942Z,4.43
2023-03-17T09:43:04.803Z,5.93
2023-03-17T09:46:56.818Z,5.00
2023-03-17T09:50:03.308Z,7.72
2023-03-17T09:53:16.668Z,5.50
2023-03-17T09:56:20.406Z,6.83
2023-03-17T09:59:42.706Z,5.93
2023-03-17T10:02:47.457Z,7.43
2023-03-17T10:05:50.236Z,4.88
2023-03-17T10:09:26.169Z,4.68
2023-03-17T10:12:45.775Z,5.07
2023-03-17T10:16:02.317Z,5.18
2023-03-17T10:19:39.233Z,4.47
2023-03-17T10:22:50.898Z,5.63
2023-03-17T10:25:56.920Z,4.18
2023-03-17T10:29:06.228Z,3.83
2023-03-17T10:32:14.076Z,4.72
2023-03-17T10:35:20.461Z,4.97
2023-03-17T10:38:24.810Z,5.38
2023-03-17T10:45:25.201Z,4.37
2023-03-17T10:48:29.994Z,3.50
2023-03-17T10:51:40.423Z,3.72
2023-03-17T10:54:48.451Z,3.75
2023-03-17T10:58:14.013Z,4.90
2023-03-17T11:02:06.682Z,5.60
2023-03-17T11:05:31.575Z,4.35
2023-03-17T11:08:57.562Z,5.25
2023-03-17T11:12:21.393Z,4.32
2023-03-17T11:15:27.791Z,6.25
2023-03-17T11:18:36.779Z,6.13
2023-03-17T11:22:05.592Z,4.95
2023-03-17T11:25:25.499Z,5.03
2023-03-17T11:28:33.888Z,4.88
2023-03-17T11:31:44.283Z,7.82
2023-03-17T11:34:52.201Z,5.27
2023-03-17T11:38:14.182Z,4.68
2023-03-17T11:41:33.167Z,3.85
2023-03-17T11:45:10.000Z,9.88
2023-03-17T11:48:33.143Z,4.18
2023-03-17T11:52:23.871Z,5.37
2023-03-17T11:55:50.255Z,5.93
2023-03-17T11:59:02.115Z,5.32
2023-03-17T12:02:22.918Z,3.55
2023-03-17T12:05:28.015Z,3.95
2023-03-17T12:08:52.734Z,4.95
2023-03-17T12:11:56.573Z,8.00
2023-03-17T12:15:02.403Z,4.82
2023-03-17T12:18:23.750Z,8.95
2023-03-17T12:21:37.005Z,5.75
2023-03-17T12:24:54.385Z,5.63
2023-03-17T12:28:18.944Z,8.13
2023-03-17T12:31:42.651Z,5.57
2023-03-17T12:34:57.258Z,5.30
2023-03-17T12:38:05.471Z,5.07
2023-03-17T12:41:19.329Z,6.25
2023-03-17T12:45:03.911Z,6.67
2023-03-17T12:48:45.963Z,5.65
2023-03-17T12:52:17.123Z,4.90
2023-03-17T12:55:25.678Z,7.03
2023-03-17T12:59:41.701Z,4.70
2023-03-17T13:05:19.797Z,5.50
2023-03-17T13:08:30.171Z,3.75
2023-03-17T13:12:25.473Z,4.55
2023-03-17T13:15:35.295Z,3.83
2023-03-17T13:18:40.814Z,5.05
2023-03-17T13:22:18.225Z,4.93
2023-03-17T13:25:35.573Z,4.95
2023-03-17T13:28:38.956Z,7.03
2023-03-17T13:31:41.740Z,4.35
2023-03-17T13:34:50.179Z,3.47
2023-03-17T13:38:11.613Z,5.73
2023-03-17T13:41:56.620Z,5.45
2023-03-17T13:45:28.902Z,5.68
2023-03-17T13:48:40.381Z,4.40
2023-03-17T13:51:56.376Z,3.38
2023-03-17T13:55:24.477Z,5.93
2023-03-17T13:58:33.444Z,3.90
2023-03-17T14:01:48.934Z,3.88
2023-03-17T14:04:56.610Z,5.60
2023-03-17T14:08:18.521Z,6.32
2023-03-17T14:11:28.978Z,6.30
2023-03-17T14:14:41.334Z,4.13
2023-03-17T14:18:15.688Z,5.85
2023-03-17T14:21:25.794Z,2.85
2023-03-17T14:24:31.777Z,4.80
2023-03-17T14:27:35.583Z,5.77
2023-03-17T14:30:39.167Z,7.03
2023-03-17T14:33:42.248Z,7.07
2023-03-17T14:36:45.093Z,6.05
2023-03-17T14:39:52.791Z,8.77
2023-03-17T14:42:56.442Z,7.30
2023-03-17T14:46:00.642Z,4.55
2023-03-17T14:49:23.632Z,6.22
2023-03-17T14:52:32.798Z,6.15
2023-03-17T14:55:43.418Z,5.65
2023-03-17T14:58:48.936Z,4.30
2023-03-17T15:01:57.406Z,4.45
2023-03-17T15:05:39.813Z,5.10
2023-03-17T15:08:46.406Z,3.95
2023-03-17T15:11:49.671Z,4.00
2023-03-17T15:14:56.721Z,4.70
2023-03-17T15:18:04.251Z,4.50
2023-03-17T15:21:23.382Z,5.85
2023-03-17T15:24:33.436Z,5.15
2023-03-17T15:27:36.347Z,4.65
2023-03-17T15:30:48.112Z,4.93
2023-03-17T15:33:51.591Z,4.68
2023-03-17T15:36:55.554Z,5.80
2023-03-17T15:39:59.800Z,14.50
2023-03-17T15:43:02.944Z,25.20
2023-03-17T15:46:08.821Z,17.10
2023-03-17T15:49:12.683Z,8.10
2023-03-17T15:52:25.373Z,17.40
2023-03-17T15:55:30.857Z,9.60
2023-03-17T15:58:35.254Z,7.55
2023-03-17T16:01:39.733Z,9.10
2023-03-17T16:04:42.798Z,8.70
2023-03-17T16:07:46.461Z,6.38
2023-03-17T16:10:49.350Z,5.22
2023-03-17T16:13:52.085Z,7.07
2023-03-17T16:16:55.052Z,6.13
2023-03-17T16:19:59.866Z,6.38
2023-03-17T16:23:11.720Z,6.97
2023-03-17T16:26:16.901Z,9.43
2023-03-17T16:29:21.370Z,11.03
2023-03-17T16:32:24.923Z,7.50
2023-03-17T16:35:27.978Z,9.85
2023-03-17T16:38:33.284Z,8.85
2023-03-17T16:41:36.059Z,10.10
2023-03-17T16:44:38.978Z,12.73
2023-03-17T16:47:41.758Z,14.23
2023-03-17T16:50:44.752Z,17.08
2023-03-17T16:53:47.646Z,12.60
2023-03-17T16:56:50.936Z,22.35
2023-03-17T16:59:53.977Z,20.55
2023-03-17T17:02:57.714Z,20.17
2023-03-17T17:06:00.545Z,22.75
2023-03-17T17:09:04.077Z,25.65
2023-03-17T17:12:07.012Z,29.20
2023-03-17T17:15:11.735Z,32.03
2023-03-17T17:18:22.404Z,31.90
2023-03-17T17:21:26.767Z,29.60
2023-03-17T17:24:29.887Z,23.35
2023-03-17T17:27:34.944Z,28.08
2023-03-17T17:30:38.214Z,19.20
2023-03-17T17:33:41.280Z,17.97
2023-03-17T17:36:44.478Z,17.25
2023-03-17T17:39:47.293Z,16.65
2023-03-17T17:42:52.510Z,17.35
2023-03-17T17:45:55.853Z,23.40
2023-03-17T17:48:58.818Z,28.93
2023-03-17T17:52:01.933Z,41.75
2023-03-17T17:55:05.469Z,32.83
2023-03-17T17:58:11.862Z,41.15
2023-03-17T18:01:19.911Z,28.73
2023-03-17T18:04:23.305Z,49.03
2023-03-17T18:07:27.310Z,34.55
2023-03-17T18:10:31.266Z,28.25
2023-03-17T18:13:39.103Z,25.52
2023-03-17T18:16:45.399Z,21.48
2023-03-17T18:19:55.289Z,32.03
2023-03-17T18:22:58.845Z,25.55
2023-03-17T18:26:03.654Z,28.90
2023-03-17T18:29:07.619Z,30.65
2023-03-17T18:32:12.382Z,20.20
2023-03-17T18:35:20.841Z,29.90
2023-03-17T18:38:24.627Z,94.57
2023-03-17T18:41:28.066Z,99.60
2023-03-17T18:44:30.920Z,72.30
2023-03-17T18:47:36.727Z,48.33
2023-03-17T18:50:39.842Z,50.87
2023-03-17T18:53:42.683Z,60.97
2023-03-17T18:56:45.754Z,55.47
2023-03-17T18:59:48.870Z,48.92
2023-03-17T19:02:52.650Z,44.50
2023-03-17T19:05:57.010Z,42.43
2023-03-17T19:09:02.070Z,45.83
2023-03-17T19:12:07.720Z,27.92
2023-03-17T19:15:12.723Z,29.40
2023-03-17T19:18:16.303Z,22.03
2023-03-17T19:21:20.025Z,26.10
2023-03-17T19:24:23.150Z,23.65
2023-03-17T19:27:26.030Z,24.33
2023-03-17T19:30:29.421Z,74.05
2023-03-17T19:33:33.090Z,76.20
2023-03-17T19:36:37.887Z,45.10
2023-03-17T19:39:41.445Z,38.53
2023-03-17T19:42:45.046Z,34.53
2023-03-17T19:45:48.241Z,32.83
2023-03-17T19:48:51.851Z,30.23
2023-03-17T19:51:55.045Z,27.83
2023-03-17T19:54:58.832Z,19.13
2023-03-17T19:58:04.216Z,18.33
2023-03-17T20:01:07.671Z,18.13
2023-03-17T20:04:14.166Z,21.07
2023-03-17T20:07:17.262Z,26.40
2023-03-17T20:10:20.469Z,22.88
2023-03-17T20:13:25.016Z,19.92
2023-03-17T20:16:32.038Z,21.70
2023-03-17T20:19:39.275Z,24.83
2023-03-17T20:22:43.718Z,42.00
2023-03-17T20:25:46.841Z,35.88
2023-03-17T20:28:50.096Z,33.78
2023-03-17T20:31:53.287Z,34.75
2023-03-17T20:34:57.042Z,34.33
2023-03-17T20:38:00.152Z,36.10
2023-03-17T20:41:14.842Z,27.40
2023-03-17T20:44:19.234Z,33.08
2023-03-17T20:47:22.662Z,30.92
2023-03-17T20:50:25.656Z,28.93
2023-03-17T20:53:28.631Z,34.53
2023-03-17T20:56:33.924Z,32.40
2023-03-17T20:59:36.746Z,40.72
2023-03-17T21:02:41.310Z,34.85
2023-03-17T21:05:44.408Z,30.20
2023-03-17T21:08:47.430Z,29.80
2023-03-17T21:11:50.293Z,29.88
2023-03-17T21:14:53.448Z,29.23
2023-03-17T21:17:56.243Z,25.17
2023-03-17T21:20:59.302Z,24.43
2023-03-17T21:24:02.707Z,28.07
2023-03-17T21:27:09.705Z,25.25
2023-03-17T21:30:14.740Z,26.30
2023-03-17T21:33:17.851Z,25.08
2023-03-17T21:36:21.357Z,24.30
2023-03-17T21:39:28.099Z,27.43
2023-03-17T21:42:32.186Z,26.52
2023-03-17T21:45:35.054Z,33.70
2023-03-17T21:48:37.873Z,28.23
2023-03-17T21:51:40.782Z,36.13
2023-03-17T21:54:43.570Z,30.53
2023-03-17T21:57:46.640Z,32.03
2023-03-17T22:00:49.608Z,27.50
2023-03-17T22:03:52.616Z,28.27
2023-03-17T22:06:56.188Z,28.90
2023-03-17T22:10:01.045Z,22.57
2023-03-17T22:13:03.800Z,29.10
2023-03-17T22:16:07.130Z,22.42
2023-03-17T22:19:10.498Z,24.75
2023-03-17T22:22:14.698Z,29.50
2023-03-17T22:25:17.638Z,28.00
2023-03-17T22:28:20.452Z,24.27
2023-03-17T22:31:25.908Z,25.77
2023-03-17T22:34:28.797Z,28.77
2023-03-17T22:37:31.843Z,28.13
2023-03-17T22:40:35.794Z,25.63
2023-03-17T22:43:38.834Z,27.30
2023-03-17T22:46:41.771Z,26.10
2023-03-17T22:49:44.751Z,29.60
2023-03-17T22:52:47.783Z,24.37
2023-03-17T22:55:50.627Z,22.07
2023-03-17T22:58:55.041Z,23.88
2023-03-17T23:01:58.051Z,28.98
2023-03-17T23:05:01.562Z,26.30
2023-03-17T23:08:05.130Z,24.93
2023-03-17T23:11:10.850Z,31.93
2023-03-17T23:14:13.683Z,29.02
2023-03-17T23:17:16.563Z,26.00
2023-03-17T23:20:19.465Z,30.55
2023-03-17T23:23:22.272Z,26.13
2023-03-17T23:26:25.112Z,27.57
2023-03-17T23:29:28.762Z,27.00
2023-03-17T23:32:32.049Z,25.42
2023-03-17T23:35:35.942Z,26.13
2023-03-17T23:38:38.756Z,21.27
2023-03-17T23:41:42.005Z,25.50
2023-03-17T23:44:45.273Z,26.83
2023-03-17T23:47:48.206Z,24.42
2023-03-17T23:50:52.990Z,20.38
2023-03-17T23:53:56.669Z,25.27
2023-03-17T23:57:01.182Z,20.50
